Time;durP1;ratioP1;P1;durP2;ratioP2;P2;SDS_P1;SDS_P2;PMS_P1;PMS_P2;Temp;Humidity;BMP_temperature;BMP_pressure;BME280_temperature;BME280_humidity;BME280_pressure;Samples;Min_cycle;Max_cycle;Signal;HPM_P1;HPM_P2
2022/06/13 00:01:14;;;;;;;5.28;4.70;;;20.30;57.90;;;;;;5010721;28;20617;-87
2022/06/13 00:03:40;;;;;;;5.57;4.97;;;20.20;57.90;;;;;;5010119;28;20155;-84
2022/06/13 00:06:06;;;;;;;5.50;5.00;;;20.20;57.80;;;;;;5010277;28;20156;-85
2022/06/13 00:08:31;;;;;;;5.90;5.03;;;20.20;57.80;;;;;;5010545;28;20163;-84
2022/06/13 00:10:57;;;;;;;5.80;5.20;;;20.20;57.90;;;;;;5010239;28;20171;-86
2022/06/13 00:13:22;;;;;;;6.20;5.30;;;20.20;57.80;;;;;;4993958;28;20160;-85
2022/06/13 00:15:48;;;;;;;6.93;5.03;;;20.20;57.90;;;;;;5010113;28;20156;-86
2022/06/13 00:18:14;;;;;;;5.35;4.85;;;20.20;57.90;;;;;;4993708;28;20172;-85
2022/06/13 00:20:39;;;;;;;5.53;5.00;;;20.20;57.80;;;;;;4992614;28;20199;-87
2022/06/13 00:23:05;;;;;;;5.68;5.07;;;20.20;57.90;;;;;;4993696;28;20585;-87
2022/06/13 00:25:31;;;;;;;5.32;4.82;;;20.20;57.90;;;;;;4993621;28;20183;-87
2022/06/13 00:27:57;;;;;;;6.20;5.13;;;20.20;57.90;;;;;;5010001;28;20615;-85
2022/06/13 00:30:23;;;;;;;6.28;5.40;;;20.20;57.90;;;;;;4993328;28;20165;-87
2022/06/13 00:32:49;;;;;;;5.85;5.25;;;20.20;57.90;;;;;;4993303;28;20191;-87
2022/06/13 00:35:15;;;;;;;6.22;5.05;;;20.20;57.80;;;;;;5009722;28;20155;-86
2022/06/13 00:37:41;;;;;;;6.05;5.45;;;20.20;57.80;;;;;;5009623;28;20187;-87
2022/06/13 00:40:08;;;;;;;5.07;4.57;;;20.20;57.80;;;;;;5009463;28;20196;-86
2022/06/13 00:42:33;;;;;;;5.55;4.80;;;20.20;57.80;;;;;;5009708;28;20180;-86
2022/06/13 00:45:18;;;;;;;6.70;5.35;;;20.20;57.80;;;;;;5009298;28;20697;-85
2022/06/13 00:47:45;;;;;;;5.70;5.10;;;20.20;57.80;;;;;;5009701;28;20156;-87
2022/06/13 00:50:22;;;;;;;6.07;5.30;;;20.20;57.90;;;;;;5009343;28;20160;-85
2022/06/13 00:53:11;;;;;;;5.15;4.65;;;20.10;57.90;;;;;;5008388;28;20148;-85
2022/06/13 00:55:59;;;;;;;5.97;4.90;;;20.10;57.90;;;;;;4990678;28;20164;-85
2022/06/13 00:58:25;;;;;;;5.60;5.10;;;20.20;58.00;;;;;;4990987;28;20164;-87
2022/06/13 01:00:54;;;;;;;5.95;5.35;;;20.10;57.90;;;;;;4992909;28;20570;-86
2022/06/13 01:03:21;;;;;;;4.97;4.50;;;20.10;57.90;;;;;;5009078;28;20243;-86
2022/06/13 01:05:49;;;;;;;5.53;5.03;;;20.10;57.90;;;;;;4993090;28;20251;-87
2022/06/13 01:08:15;;;;;;;5.78;4.63;;;20.10;58.00;;;;;;5008972;28;20162;-86
2022/06/13 01:13:20;;;;;;;5.55;4.95;;;20.10;58.00;;;;;;5007520;28;20191;-85
2022/06/13 01:16:04;;;;;;;5.05;4.55;;;20.10;58.60;;;;;;5009190;28;20681;-86
2022/06/13 01:18:50;;;;;;;5.97;5.07;;;20.10;58.00;;;;;;5007228;28;20156;-85
2022/06/13 01:21:26;;;;;;;5.47;4.95;;;20.10;58.00;;;;;;5009032;28;20184;-85
2022/06/13 01:24:12;;;;;;;5.10;4.60;;;20.10;58.00;;;;;;5008340;28;20149;-86
2022/06/13 01:27:15;;;;;;;5.38;4.70;;;20.10;58.00;;;;;;4992746;28;20172;-86
2022/06/13 01:29:56;;;;;;;5.18;4.68;;;20.10;58.10;;;;;;4992695;28;20206;-87
2022/06/13 01:32:51;;;;;;;5.28;4.78;;;20.10;58.10;;;;;;5007509;28;20176;-87
2022/06/13 01:35:30;;;;;;;6.05;5.43;;;20.10;58.10;;;;;;4989167;28;20164;-86
2022/06/13 01:38:10;;;;;;;6.55;4.90;;;20.10;58.10;;;;;;5007855;28;20170;-85
2022/06/13 01:40:52;;;;;;;5.75;5.13;;;20.10;58.10;;;;;;4993648;28;20183;-86
2022/06/13 01:43:56;;;;;;;6.10;4.85;;;20.10;58.10;;;;;;5008254;28;20152;-85
2022/06/13 01:46:34;;;;;;;6.28;5.00;;;20.10;58.10;;;;;;4993598;28;20179;-86
2022/06/13 01:49:08;;;;;;;5.93;5.32;;;20.10;58.20;;;;;;5008937;28;20154;-87
2022/06/13 01:51:49;;;;;;;6.38;5.45;;;20.00;58.20;;;;;;5008209;28;20160;-86
2022/06/13 01:54:27;;;;;;;5.90;5.25;;;20.10;58.20;;;;;;4991554;28;20176;-85
2022/06/13 01:57:26;;;;;;;6.00;5.15;;;20.10;58.20;;;;;;4990921;28;20706;-87
2022/06/13 02:00:27;;;;;;;5.68;4.72;;;20.10;58.20;;;;;;4992502;28;20163;-84
2022/06/13 02:03:08;;;;;;;6.18;4.65;;;20.10;58.20;;;;;;4989865;28;20673;-85
2022/06/13 02:05:42;;;;;;;5.10;4.60;;;20.00;58.20;;;;;;5006022;28;20160;-87
2022/06/13 02:08:12;;;;;;;5.40;4.80;;;20.00;58.20;;;;;;5006402;28;20164;-86
2022/06/13 02:10:41;;;;;;;6.55;4.90;;;20.10;58.20;;;;;;5006325;28;20183;-87
2022/06/13 02:13:10;;;;;;;5.82;4.75;;;20.10;58.20;;;;;;4988800;28;20168;-88
2022/06/13 02:15:40;;;;;;;5.72;5.10;;;20.00;58.20;;;;;;4991619;28;20168;-85
2022/06/13 02:18:09;;;;;;;5.45;4.93;;;20.00;58.20;;;;;;4990385;28;20527;-86
2022/06/13 02:20:37;;;;;;;5.57;5.05;;;20.00;58.20;;;;;;5006299;28;20187;-88
2022/06/13 02:23:07;;;;;;;5.50;4.90;;;20.00;58.20;;;;;;5006772;28;20149;-85
2022/06/13 02:25:37;;;;;;;5.60;4.90;;;20.00;58.20;;;;;;5007109;28;20163;-88
2022/06/13 02:28:09;;;;;;;6.80;5.20;;;20.00;58.30;;;;;;4990891;28;20176;-86
2022/06/13 02:30:36;;;;;;;5.53;4.78;;;20.00;58.30;;;;;;5007223;28;20152;-87
2022/06/13 02:33:05;;;;;;;5.60;5.00;;;20.00;58.30;;;;;;4990759;28;20222;-86
2022/06/13 02:35:36;;;;;;;6.07;4.50;;;20.00;58.30;;;;;;5008449;28;20163;-88
2022/06/13 02:38:06;;;;;;;5.28;4.78;;;20.00;58.30;;;;;;4991724;28;20179;-87
2022/06/13 02:40:36;;;;;;;6.00;4.75;;;20.00;58.40;;;;;;4991444;28;20239;-88
2022/06/13 02:43:12;;;;;;;5.63;4.45;;;20.00;58.40;;;;;;5008099;28;20163;-85
2022/06/13 02:45:45;;;;;;;5.63;4.47;;;20.00;58.40;;;;;;4993433;28;20405;-86
2022/06/13 02:48:29;;;;;;;5.75;5.25;;;20.00;58.40;;;;;;4995324;28;20174;-88
2022/06/13 02:51:10;;;;;;;4.88;4.45;;;20.00;58.40;;;;;;5009883;28;20217;-85
2022/06/13 02:53:40;;;;;;;5.10;4.45;;;20.00;58.40;;;;;;4994015;28;20164;-85
2022/06/13 02:56:31;;;;;;;5.75;4.90;;;19.90;58.40;;;;;;5011444;28;20159;-87
2022/06/13 02:59:16;;;;;;;5.45;4.70;;;20.00;58.40;;;;;;4995217;28;20210;-88
2022/06/13 03:01:43;;;;;;;5.43;4.90;;;20.00;58.30;;;;;;4995072;28;20199;-85
2022/06/13 03:04:14;;;;;;;4.85;4.20;;;20.00;58.30;;;;;;4995026;28;20164;-85
2022/06/13 03:07:02;;;;;;;5.10;4.60;;;20.00;58.30;;;;;;4995074;28;20226;-88
2022/06/13 03:09:41;;;;;;;6.35;4.82;;;19.90;58.30;;;;;;4995053;28;20311;-86
2022/06/13 03:12:12;;;;;;;6.18;4.95;;;19.90;58.30;;;;;;5009885;28;20657;-85
2022/06/13 03:14:54;;;;;;;6.10;5.00;;;20.00;58.30;;;;;;5011034;28;20646;-88
2022/06/13 03:17:41;;;;;;;5.03;4.50;;;20.00;58.30;;;;;;4995435;28;20160;-85
2022/06/13 03:20:21;;;;;;;5.30;4.80;;;20.00;58.30;;;;;;5008748;28;20166;-86
2022/06/13 03:23:10;;;;;;;4.55;4.15;;;20.00;58.30;;;;;;4994567;28;20164;-85
2022/06/13 03:25:49;;;;;;;5.05;4.55;;;19.90;58.90;;;;;;4994769;28;20164;-85
2022/06/13 03:28:35;;;;;;;4.93;4.30;;;20.00;58.30;;;;;;4994326;28;20614;-86
2022/06/13 03:31:07;;;;;;;5.60;4.47;;;20.00;58.30;;;;;;5010350;28;20519;-87
2022/06/13 03:33:40;;;;;;;5.35;4.65;;;20.00;58.30;;;;;;4994239;28;20235;-85
2022/06/13 03:36:18;;;;;;;4.60;4.20;;;20.00;58.30;;;;;;4994586;28;20168;-86
2022/06/13 03:38:54;;;;;;;5.70;5.03;;;20.00;58.20;;;;;;5010367;28;20148;-88
2022/06/13 03:41:21;;;;;;;5.30;4.80;;;20.00;58.20;;;;;;5009954;28;20184;-87
2022/06/13 03:43:52;;;;;;;6.03;4.75;;;20.10;58.20;;;;;;5010218;28;20222;-87
2022/06/13 03:46:35;;;;;;;5.63;4.85;;;20.00;58.10;;;;;;4994236;28;20164;-86
2022/06/13 03:49:06;;;;;;;4.78;4.32;;;20.10;58.20;;;;;;4994072;28;20259;-88
2022/06/13 03:51:36;;;;;;;5.47;4.70;;;20.00;58.20;;;;;;4995435;28;20243;-86
2022/06/13 03:54:07;;;;;;;4.82;4.28;;;20.00;58.10;;;;;;5009992;28;20681;-85
2022/06/13 03:56:38;;;;;;;5.40;4.53;;;20.00;58.00;;;;;;5010425;28;20183;-85
2022/06/13 03:59:08;;;;;;;6.03;4.75;;;20.10;58.10;;;;;;4993819;28;20168;-84
2022/06/13 04:01:38;;;;;;;5.25;4.50;;;20.10;58.70;;;;;;4993849;28;20279;-86
2022/06/13 04:04:04;;;;;;;5.07;4.25;;;20.10;57.90;;;;;;4994013;28;20195;-85
2022/06/13 04:06:36;;;;;;;5.35;4.45;;;20.10;57.90;;;;;;5010259;28;20184;-86
2022/06/13 04:09:20;;;;;;;5.20;4.20;;;20.10;58.00;;;;;;4993709;28;20170;-86
2022/06/13 04:12:04;;;;;;;5.13;4.38;;;20.10;57.90;;;;;;4991786;28;20168;-85
2022/06/13 04:15:10;;;;;;;5.00;4.40;;;20.10;57.90;;;;;;5010180;28;20263;-87
2022/06/13 04:17:54;;;;;;;5.28;4.38;;;20.10;58.00;;;;;;5005056;28;20164;-87
2022/06/13 04:20:40;;;;;;;6.05;4.75;;;20.00;57.90;;;;;;4995008;28;20195;-85
2022/06/13 04:23:24;;;;;;;5.90;4.78;;;20.10;58.00;;;;;;4994817;28;20149;-87
2022/06/13 04:26:04;;;;;;;5.68;4.55;;;20.10;57.90;;;;;;4993654;28;20188;-85
2022/06/13 04:28:47;;;;;;;5.72;4.68;;;20.10;57.90;;;;;;5008394;28;20152;-85
2022/06/13 04:31:13;;;;;;;4.88;4.38;;;20.10;58.00;;;;;;5010007;28;20184;-86
2022/06/13 04:33:44;;;;;;;5.70;4.70;;;20.10;57.90;;;;;;5009758;28;20219;-85
2022/06/13 04:36:11;;;;;;;5.00;4.50;;;20.10;57.90;;;;;;5009521;28;20153;-88
2022/06/13 04:38:39;;;;;;;5.32;4.60;;;20.20;58.10;;;;;;5009861;28;20192;-86
2022/06/13 04:41:05;;;;;;;5.07;4.57;;;20.10;58.00;;;;;;5009532;28;20188;-86
2022/06/13 04:43:34;;;;;;;4.93;4.43;;;20.10;58.10;;;;;;4992772;28;20553;-85
2022/06/13 04:46:04;;;;;;;6.72;4.60;;;20.00;58.10;;;;;;4993159;28;20298;-86
2022/06/13 04:48:30;;;;;;;5.85;4.15;;;20.00;58.10;;;;;;5009368;28;20239;-87
2022/06/13 04:50:58;;;;;;;4.88;4.15;;;20.10;58.00;;;;;;5009501;28;20235;-88
2022/06/13 04:53:29;;;;;;;4.70;4.20;;;20.10;58.00;;;;;;5009310;28;20156;-86
2022/06/13 04:55:54;;;;;;;5.15;4.47;;;20.10;58.00;;;;;;5008994;28;20611;-86
2022/06/13 04:58:30;;;;;;;4.68;4.15;;;20.10;58.00;;;;;;4993194;28;20173;-85
2022/06/13 05:01:02;;;;;;;4.35;3.95;;;20.10;57.90;;;;;;4993097;28;20199;-86
2022/06/13 05:03:30;;;;;;;4.60;4.20;;;20.10;57.80;;;;;;5009040;28;20639;-87
2022/06/13 05:05:58;;;;;;;4.25;3.85;;;20.20;57.70;;;;;;4993296;28;20210;-86
2022/06/13 05:08:26;;;;;;;4.97;4.32;;;20.30;57.60;;;;;;5009016;28;20159;-86
2022/06/13 05:10:54;;;;;;;4.95;4.13;;;20.30;57.40;;;;;;4992642;28;20164;-86
2022/06/13 05:13:20;;;;;;;4.47;3.90;;;20.30;57.40;;;;;;4992698;28;20164;-87
2022/06/13 05:15:49;;;;;;;4.35;3.85;;;20.30;57.30;;;;;;5009398;28;20171;-88
2022/06/13 05:18:32;;;;;;;4.68;3.90;;;20.30;57.30;;;;;;5008819;28;20160;-89
2022/06/13 05:21:21;;;;;;;4.53;3.85;;;20.40;57.40;;;;;;5008162;28;20191;-85
2022/06/13 05:24:06;;;;;;;4.45;3.75;;;20.30;57.30;;;;;;5009114;28;20157;-87
2022/06/13 05:26:32;;;;;;;4.32;3.92;;;20.20;57.40;;;;;;5007291;28;20251;-88
2022/06/13 05:28:59;;;;;;;3.97;3.58;;;20.10;57.60;;;;;;4993894;28;20242;-87
2022/06/13 05:31:25;;;;;;;4.65;3.85;;;20.10;57.70;;;;;;5008787;28;20191;-88
2022/06/13 05:33:51;;;;;;;3.38;3.08;;;20.00;57.80;;;;;;5009005;28;20184;-88
2022/06/13 05:36:18;;;;;;;3.63;3.33;;;19.90;57.90;;;;;;4992690;28;20638;-86
2022/06/13 05:38:49;;;;;;;3.40;3.08;;;20.00;58.10;;;;;;5008800;28;20179;-87
2022/06/13 05:41:15;;;;;;;3.75;3.10;;;19.90;58.20;;;;;;5008309;28;20196;-86
2022/06/13 05:43:40;;;;;;;3.42;3.13;;;19.90;58.20;;;;;;4992130;28;20611;-86
2022/06/13 05:46:07;;;;;;;4.10;3.47;;;19.90;58.10;;;;;;5008999;28;20191;-86
2022/06/13 05:48:32;;;;;;;3.70;3.10;;;20.00;57.90;;;;;;4992424;28;20198;-87
2022/06/13 05:50:59;;;;;;;3.72;3.33;;;20.10;57.70;;;;;;5008788;28;20168;-85
2022/06/13 05:53:25;;;;;;;4.00;3.60;;;20.10;57.50;;;;;;4992309;28;20166;-88
2022/06/13 05:55:54;;;;;;;3.38;3.08;;;20.20;57.50;;;;;;5008962;28;20722;-85
2022/06/13 05:58:20;;;;;;;4.10;3.70;;;20.30;57.50;;;;;;5008557;28;20156;-87
2022/06/13 06:00:52;;;;;;;4.03;3.65;;;20.20;57.50;;;;;;5008593;28;20575;-88
2022/06/13 06:03:19;;;;;;;3.70;3.40;;;20.20;57.60;;;;;;4991928;28;20251;-85
2022/06/13 06:05:44;;;;;;;3.45;3.15;;;20.20;57.60;;;;;;4992784;28;20169;-85
2022/06/13 06:08:17;;;;;;;3.42;3.13;;;20.10;57.50;;;;;;5008597;28;20557;-86
2022/06/13 06:10:42;;;;;;;3.10;2.80;;;20.20;57.50;;;;;;4992414;28;20646;-85
2022/06/13 06:13:08;;;;;;;3.40;3.10;;;20.20;57.30;;;;;;5008567;28;20244;-85
2022/06/13 06:15:34;;;;;;;3.65;3.13;;;20.10;57.50;;;;;;5008505;28;20152;-85
2022/06/13 06:18:00;;;;;;;3.38;3.08;;;20.10;57.50;;;;;;5008622;28;20569;-87
2022/06/13 06:20:25;;;;;;;3.63;3.10;;;20.00;57.60;;;;;;4995034;28;20211;-87
2022/06/13 06:22:51;;;;;;;3.85;3.00;;;19.90;57.80;;;;;;5012197;28;20154;-84
2022/06/13 06:25:17;;;;;;;3.95;3.55;;;19.90;58.00;;;;;;5012136;28;20164;-85
2022/06/13 06:27:43;;;;;;;3.15;2.78;;;19.90;58.20;;;;;;5012088;28;20164;-85
2022/06/13 06:30:10;;;;;;;3.20;2.90;;;19.80;58.20;;;;;;5011884;28;20160;-87
2022/06/13 06:32:36;;;;;;;3.67;3.38;;;19.80;58.10;;;;;;5012047;28;20623;-88
2022/06/13 06:35:06;;;;;;;4.18;3.78;;;19.80;58.20;;;;;;4995791;28;20290;-88
2022/06/13 06:37:32;;;;;;;3.70;3.13;;;19.80;58.20;;;;;;5012154;28;20152;-91
2022/06/13 06:39:58;;;;;;;3.95;3.25;;;19.80;58.20;;;;;;5012459;28;20215;-85
2022/06/13 06:42:24;;;;;;;4.00;3.60;;;19.80;58.10;;;;;;4995529;28;20215;-81
2022/06/13 06:44:50;;;;;;;4.53;3.40;;;19.90;58.20;;;;;;5011456;28;20223;-86
2022/06/13 06:47:18;;;;;;;4.13;3.53;;;19.80;58.10;;;;;;4995894;28;20172;-87
2022/06/13 06:49:46;;;;;;;3.45;3.15;;;19.80;58.10;;;;;;5012157;28;20168;-84
2022/06/13 06:52:12;;;;;;;4.10;3.70;;;19.80;58.00;;;;;;5012308;28;20160;-85
2022/06/13 06:59:53;;;;;;;3.40;3.10;;;20.00;58.00;;;;;;5010370;28;20510;-84
2022/06/13 07:02:23;;;;;;;3.60;3.30;;;20.00;57.90;;;;;;4994415;28;20203;-84
2022/06/13 07:04:52;;;;;;;3.70;3.35;;;20.00;57.80;;;;;;4995141;28;20249;-86
2022/06/13 07:07:18;;;;;;;4.35;3.30;;;20.00;57.80;;;;;;4994692;28;20218;-85
2022/06/13 07:09:43;;;;;;;5.50;4.00;;;20.00;57.80;;;;;;5011306;28;20550;-85
2022/06/13 07:12:10;;;;;;;3.45;3.15;;;20.00;57.80;;;;;;5011700;28;20613;-85
2022/06/13 07:14:36;;;;;;;4.72;3.70;;;20.00;57.80;;;;;;4997097;28;20164;-84
2022/06/13 07:17:03;;;;;;;5.10;3.47;;;20.10;57.70;;;;;;4997484;28;20190;-85
2022/06/13 07:19:29;;;;;;;5.25;3.90;;;20.10;57.60;;;;;;4996944;28;20176;-85
2022/06/13 07:21:54;;;;;;;4.47;3.63;;;20.20;57.50;;;;;;5011449;28;20555;-85
2022/06/13 07:24:20;;;;;;;4.97;3.80;;;20.10;57.50;;;;;;5011823;28;20156;-87
2022/06/13 07:26:47;;;;;;;4.15;3.75;;;20.00;57.70;;;;;;5011448;28;20153;-83
2022/06/13 07:29:12;;;;;;;4.47;3.97;;;20.10;57.80;;;;;;5011489;28;20678;-84
2022/06/13 07:31:40;;;;;;;4.50;3.90;;;20.10;57.80;;;;;;5010626;28;20198;-84
2022/06/13 07:34:07;;;;;;;4.60;4.00;;;20.10;57.80;;;;;;4995536;28;20207;-83
2022/06/13 07:36:33;;;;;;;4.82;3.83;;;20.00;57.80;;;;;;5010920;28;20158;-83
2022/06/13 07:38:59;;;;;;;5.28;4.00;;;20.00;58.00;;;;;;4992974;28;20184;-82
2022/06/13 07:41:25;;;;;;;5.38;3.90;;;19.90;58.00;;;;;;4977667;28;20211;-83
2022/06/13 07:43:51;;;;;;;5.25;4.28;;;19.90;58.00;;;;;;4993702;28;20222;-86
2022/06/13 07:46:25;;;;;;;4.78;3.85;;;20.00;57.90;;;;;;4977566;28;20156;-82
2022/06/13 07:48:50;;;;;;;5.07;4.00;;;20.00;57.80;;;;;;4977835;28;20258;-82
2022/06/13 07:51:16;;;;;;;4.35;3.88;;;20.00;57.80;;;;;;4977395;28;20188;-83
2022/06/13 07:53:42;;;;;;;3.95;3.50;;;20.10;57.80;;;;;;4960978;28;20187;-84
2022/06/13 07:56:10;;;;;;;5.78;4.00;;;20.10;57.70;;;;;;4977432;28;20287;-83
2022/06/13 07:58:36;;;;;;;4.88;4.32;;;20.10;57.60;;;;;;4977248;28;20207;-82
2022/06/13 08:01:03;;;;;;;4.93;4.35;;;20.10;57.70;;;;;;4961044;28;20212;-83
2022/06/13 08:03:29;;;;;;;4.63;3.67;;;20.10;57.60;;;;;;4993504;28;20163;-82
2022/06/13 08:05:57;;;;;;;6.07;4.20;;;20.10;57.50;;;;;;4977493;28;20164;-82
2022/06/13 08:08:23;;;;;;;4.75;3.90;;;20.20;57.50;;;;;;4977683;28;20591;-82
2022/06/13 08:10:49;;;;;;;4.20;3.58;;;20.10;57.30;;;;;;4998284;28;20282;-82
2022/06/13 08:13:17;;;;;;;4.15;3.63;;;20.20;57.40;;;;;;5014514;28;20152;-82
2022/06/13 08:15:43;;;;;;;4.47;3.65;;;20.20;57.40;;;;;;5012674;28;20156;-83
2022/06/13 08:18:09;;;;;;;5.85;4.07;;;20.20;57.50;;;;;;4996146;28;20156;-84
2022/06/13 08:20:35;;;;;;;4.38;3.42;;;20.10;57.60;;;;;;5011369;28;20246;-83
2022/06/13 08:23:02;;;;;;;5.25;3.67;;;20.10;57.50;;;;;;5012726;28;20168;-84
2022/06/13 08:25:31;;;;;;;4.68;3.92;;;20.10;57.50;;;;;;5012332;28;20152;-82
2022/06/13 08:27:57;;;;;;;7.43;3.95;;;20.20;57.50;;;;;;4995085;28;20179;-85
2022/06/13 08:30:24;;;;;;;6.63;3.78;;;20.20;57.50;;;;;;4995622;28;20541;-84
2022/06/13 08:32:49;;;;;;;5.22;4.10;;;20.20;57.50;;;;;;4996225;28;20156;-83
2022/06/13 08:35:18;;;;;;;4.57;3.75;;;20.20;57.50;;;;;;5014219;28;20626;-83
2022/06/13 08:37:44;;;;;;;4.80;3.97;;;20.20;57.40;;;;;;4997813;28;20264;-82
2022/06/13 08:40:10;;;;;;;8.35;4.13;;;20.20;57.30;;;;;;5013710;28;20184;-82
2022/06/13 08:42:38;;;;;;;5.63;3.90;;;20.30;57.30;;;;;;4996333;28;20169;-82
2022/06/13 08:45:30;;;;;;;5.85;3.70;;;20.30;57.20;;;;;;5013661;28;20313;-82
2022/06/13 08:48:17;;;;;;;6.22;4.00;;;20.30;57.10;;;;;;5010156;28;20164;-82
2022/06/13 08:50:50;;;;;;;5.28;3.92;;;20.40;57.10;;;;;;4994454;28;20179;-82
2022/06/13 08:53:20;;;;;;;5.22;3.90;;;20.30;57.10;;;;;;5009103;28;20156;-82
2022/06/13 08:55:48;;;;;;;4.47;3.80;;;20.30;57.10;;;;;;4994092;28;20172;-82
2022/06/13 08:58:29;;;;;;;4.57;3.70;;;20.30;57.00;;;;;;5011816;28;20578;-84
2022/06/13 09:00:59;;;;;;;4.55;3.85;;;20.40;57.00;;;;;;5010321;28;20648;-83
2022/06/13 09:03:37;;;;;;;4.82;3.90;;;20.40;56.90;;;;;;4995652;28;20188;-84
2022/06/13 09:06:09;;;;;;;5.75;3.50;;;20.40;56.90;;;;;;5013772;28;20192;-82
2022/06/13 09:08:58;;;;;;;6.38;3.92;;;20.40;56.90;;;;;;5012755;28;20152;-84
2022/06/13 09:11:59;;;;;;;4.95;3.30;;;20.40;56.80;;;;;;5010653;28;20192;-83
2022/06/13 09:14:32;;;;;;;4.43;3.75;;;20.50;56.60;;;;;;4996361;28;20167;-83
2022/06/13 09:17:08;;;;;;;4.82;3.70;;;20.60;56.50;;;;;;4994727;28;20319;-83
2022/06/13 09:19:41;;;;;;;5.78;3.30;;;20.50;56.50;;;;;;4997894;28;20160;-83
2022/06/13 09:22:20;;;;;;;4.25;3.45;;;20.50;56.50;;;;;;4997398;28;20195;-84
2022/06/13 09:24:58;;;;;;;4.45;3.78;;;20.60;56.20;;;;;;5010892;28;20614;-82
2022/06/13 09:27:34;;;;;;;5.40;3.67;;;20.50;56.50;;;;;;5010681;28;20160;-84
2022/06/13 09:30:10;;;;;;;5.05;3.67;;;20.50;56.30;;;;;;4994194;28;20248;-82
2022/06/13 09:32:43;;;;;;;5.60;3.40;;;20.50;56.60;;;;;;5012292;28;20148;-85
2022/06/13 09:35:19;;;;;;;5.38;3.17;;;20.50;56.20;;;;;;5012853;28;20156;-84
2022/06/13 09:37:48;;;;;;;4.82;3.30;;;20.60;56.00;;;;;;5011791;28;20156;-82
2022/06/13 09:40:16;;;;;;;4.95;3.53;;;20.60;56.10;;;;;;5012038;28;20214;-84
2022/06/13 09:43:06;;;;;;;6.68;3.05;;;20.60;56.00;;;;;;5011959;28;20156;-83
2022/06/13 09:45:43;;;;;;;17.38;3.88;;;20.60;56.10;;;;;;5007948;28;20216;-83
2022/06/13 09:48:19;;;;;;;20.60;4.63;;;20.70;56.10;;;;;;5010033;28;20166;-83
2022/06/13 09:50:48;;;;;;;20.75;4.35;;;20.60;56.20;;;;;;4993118;28;20183;-85
2022/06/13 09:53:25;;;;;;;12.90;4.30;;;20.60;56.10;;;;;;5011492;28;20153;-83
2022/06/13 09:56:11;;;;;;;11.75;3.97;;;20.60;56.00;;;;;;4997550;28;20171;-85
2022/06/13 09:59:09;;;;;;;11.18;3.83;;;20.70;55.80;;;;;;5011122;28;20195;-84
2022/06/13 10:01:54;;;;;;;8.73;3.35;;;20.70;56.10;;;;;;4996838;28;20192;-84
2022/06/13 10:04:39;;;;;;;11.68;3.90;;;20.70;55.80;;;;;;5011880;28;20196;-83
2022/06/13 10:07:12;;;;;;;5.82;3.03;;;20.60;55.80;;;;;;5012196;28;20153;-86
2022/06/13 10:09:53;;;;;;;6.75;3.35;;;20.70;55.50;;;;;;5012237;28;20148;-82
2022/06/13 10:12:51;;;;;;;8.38;4.28;;;20.70;55.50;;;;;;5011999;28;20175;-84
2022/06/13 10:15:40;;;;;;;5.88;3.30;;;20.60;56.10;;;;;;4996340;28;20290;-83
2022/06/13 10:18:23;;;;;;;5.45;2.95;;;20.70;55.70;;;;;;4997498;28;20618;-82
2022/06/13 10:20:53;;;;;;;5.43;3.80;;;20.80;55.30;;;;;;4995881;28;20195;-82
2022/06/13 10:23:36;;;;;;;7.75;3.85;;;20.80;55.60;;;;;;4995607;28;20203;-83
2022/06/13 10:26:24;;;;;;;5.13;3.60;;;20.80;55.50;;;;;;4997017;28;20152;-82
2022/06/13 10:29:19;;;;;;;5.18;3.80;;;20.70;55.60;;;;;;5012074;28;20157;-83
2022/06/13 10:32:03;;;;;;;4.55;3.42;;;20.70;55.80;;;;;;4996979;28;20199;-84
2022/06/13 10:34:59;;;;;;;5.40;3.50;;;20.70;55.70;;;;;;5010797;28;20178;-84
2022/06/13 10:37:49;;;;;;;11.13;3.78;;;20.70;55.70;;;;;;4996032;28;20611;-84
2022/06/13 10:40:15;;;;;;;5.30;3.67;;;20.70;55.90;;;;;;4996018;28;20516;-84
2022/06/13 10:42:41;;;;;;;9.60;4.07;;;20.70;56.10;;;;;;5012223;28;20621;-83
2022/06/13 10:45:08;;;;;;;5.68;3.70;;;20.70;55.60;;;;;;4995376;28;20277;-83
2022/06/13 10:47:40;;;;;;;7.53;3.63;;;20.70;55.80;;;;;;4995582;28;20171;-83
2022/06/13 10:50:10;;;;;;;8.95;3.90;;;20.70;55.80;;;;;;5011619;28;20619;-83
2022/06/13 10:52:40;;;;;;;4.78;3.78;;;20.70;55.80;;;;;;4994905;28;20642;-83
2022/06/13 10:55:09;;;;;;;8.25;3.80;;;20.70;55.80;;;;;;4995720;28;20202;-83
2022/06/13 10:58:02;;;;;;;7.55;3.53;;;20.70;55.80;;;;;;5011683;28;20243;-83
2022/06/13 11:00:29;;;;;;;4.95;3.50;;;20.70;55.80;;;;;;5008884;28;20180;-83
2022/06/13 11:03:14;;;;;;;6.03;3.67;;;20.70;55.50;;;;;;4995146;28;20615;-84
2022/06/13 11:05:52;;;;;;;4.32;3.50;;;20.70;55.60;;;;;;5011034;28;20627;-83
2022/06/13 11:08:18;;;;;;;4.13;3.42;;;20.70;55.80;;;;;;5011691;28;20157;-84
2022/06/13 11:10:52;;;;;;;5.80;3.63;;;20.70;56.40;;;;;;4995151;28;20182;-83
2022/06/13 11:13:25;;;;;;;6.63;3.33;;;20.80;55.70;;;;;;5011401;28;20201;-82
2022/06/13 11:24:32;;;;;;;6.25;3.80;;;20.90;55.30;;;;;;5007993;28;20159;-86
2022/06/13 11:29:47;;;;;;;4.65;3.85;;;20.90;55.40;;;;;;4974306;28;20643;-85
2022/06/13 11:32:21;;;;;;;4.60;3.28;;;20.90;55.30;;;;;;4974697;28;20276;-85
2022/06/13 11:34:47;;;;;;;4.03;3.10;;;20.80;55.30;;;;;;4977156;28;20622;-86
2022/06/13 11:37:20;;;;;;;5.03;3.70;;;20.90;55.30;;;;;;4975092;28;20215;-85
2022/06/13 11:39:48;;;;;;;4.80;3.50;;;20.80;55.20;;;;;;4958997;28;20204;-86
2022/06/13 11:42:24;;;;;;;4.35;3.53;;;20.90;55.30;;;;;;4974526;28;20239;-86
2022/06/13 11:44:56;;;;;;;3.83;3.17;;;20.80;55.30;;;;;;4974676;28;20220;-86
2022/06/13 11:47:22;;;;;;;3.47;3.10;;;20.90;55.10;;;;;;4976216;28;20310;-84
2022/06/13 11:49:49;;;;;;;4.10;2.95;;;20.90;55.00;;;;;;4974854;28;20193;-83
2022/06/13 11:55:18;;;;;;;4.35;3.00;;;21.00;54.90;;;;;;4955007;29;20578;-84
2022/06/13 11:57:46;;;;;;;5.05;3.17;;;21.00;54.80;;;;;;4944572;28;20183;-84
2022/06/13 12:00:26;;;;;;;8.20;3.75;;;21.00;54.80;;;;;;5010446;28;20204;-87
2022/06/13 12:02:55;;;;;;;5.15;2.90;;;21.00;54.80;;;;;;4997844;28;20208;-86
2022/06/13 12:05:31;;;;;;;5.25;3.40;;;21.00;54.90;;;;;;4995038;28;20175;-84
2022/06/13 12:08:03;;;;;;;6.65;3.50;;;21.00;55.10;;;;;;4993504;28;20175;-86
2022/06/13 12:10:36;;;;;;;4.35;3.15;;;20.90;55.70;;;;;;5010832;28;20248;-88
2022/06/13 12:13:03;;;;;;;6.32;3.50;;;21.00;55.00;;;;;;4994009;28;20551;-88
2022/06/13 12:15:34;;;;;;;3.90;3.13;;;21.00;54.90;;;;;;5011079;28;20164;-83
2022/06/13 12:18:08;;;;;;;3.55;3.05;;;21.00;54.80;;;;;;4994426;28;20176;-84
2022/06/13 12:20:41;;;;;;;3.70;3.10;;;21.00;54.90;;;;;;4994461;28;20192;-86
2022/06/13 12:23:08;;;;;;;5.05;3.17;;;21.00;54.80;;;;;;4993748;28;20164;-84
2022/06/13 12:25:41;;;;;;;4.82;3.40;;;21.00;54.80;;;;;;5009665;28;20164;-84
2022/06/13 12:28:17;;;;;;;4.85;3.20;;;21.00;54.80;;;;;;4993448;28;20164;-83
2022/06/13 12:31:00;;;;;;;4.13;3.40;;;21.00;54.80;;;;;;5015268;28;20186;-85
2022/06/13 12:33:42;;;;;;;5.57;3.13;;;21.00;54.60;;;;;;5015595;28;20525;-85
2022/06/13 12:36:40;;;;;;;4.65;3.20;;;20.90;54.60;;;;;;5015415;28;20155;-84
2022/06/13 12:39:40;;;;;;;4.25;3.30;;;21.00;54.40;;;;;;5031805;28;20182;-86
2022/06/13 12:42:20;;;;;;;4.38;3.05;;;21.00;54.40;;;;;;5015016;28;20198;-85
2022/06/13 12:45:08;;;;;;;4.03;3.05;;;21.10;54.20;;;;;;5016630;28;20703;-83
2022/06/13 12:47:44;;;;;;;3.92;3.30;;;21.10;54.20;;;;;;5015264;28;20625;-84
2022/06/13 12:50:40;;;;;;;3.92;3.05;;;21.10;54.50;;;;;;4983255;28;20690;-85
2022/06/13 12:53:37;;;;;;;4.60;3.10;;;21.10;54.10;;;;;;5031672;28;20161;-83
2022/06/13 12:56:24;;;;;;;3.47;2.90;;;21.10;53.90;;;;;;5001211;28;20545;-82
2022/06/13 12:59:10;;;;;;;3.05;2.75;;;21.20;53.50;;;;;;4999146;28;20159;-81
2022/06/13 13:02:00;;;;;;;5.63;3.42;;;21.20;53.60;;;;;;5013425;28;20219;-83
2022/06/13 13:05:01;;;;;;;4.00;3.40;;;21.20;53.80;;;;;;4993922;28;20183;-86
2022/06/13 13:07:50;;;;;;;3.60;3.08;;;21.10;54.10;;;;;;4992478;28;20206;-86
2022/06/13 13:10:31;;;;;;;4.07;3.15;;;21.10;54.20;;;;;;5006691;28;20156;-84
2022/06/13 13:13:07;;;;;;;3.38;2.97;;;21.10;54.20;;;;;;4992628;28;20605;-84
2022/06/13 13:15:57;;;;;;;4.55;3.38;;;21.00;54.20;;;;;;4991769;28;20181;-83
2022/06/13 13:18:40;;;;;;;5.00;3.28;;;21.10;54.10;;;;;;4996116;28;20615;-83
2022/06/13 13:21:17;;;;;;;4.18;3.20;;;21.10;54.10;;;;;;4993841;28;20276;-84
2022/06/13 13:24:07;;;;;;;4.57;3.45;;;21.10;54.10;;;;;;5008114;28;20152;-84
2022/06/13 13:26:47;;;;;;;3.60;3.20;;;21.10;54.20;;;;;;5010679;28;20172;-85
2022/06/13 13:29:24;;;;;;;6.13;3.38;;;21.10;54.10;;;;;;5006966;28;20160;-85
2022/06/13 13:31:57;;;;;;;5.05;3.20;;;21.10;54.10;;;;;;5007878;28;20159;-84
2022/06/13 13:34:41;;;;;;;3.95;3.10;;;21.10;53.90;;;;;;4994023;28;20152;-85
2022/06/13 13:37:29;;;;;;;4.10;3.05;;;21.20;53.90;;;;;;5007383;28;20156;-86
2022/06/13 13:40:13;;;;;;;5.07;2.83;;;21.10;53.50;;;;;;5007371;28;20149;-85
2022/06/13 13:42:53;;;;;;;4.05;2.88;;;21.10;53.70;;;;;;4993056;28;20286;-85